Time;durP1;ratioP1;P1;durP2;ratioP2;P2;SDS_P1;SDS_P2;PMS_P1;PMS_P2;Temp;Humidity;BMP_temperature;BMP_pressure;BME280_temperature;BME280_humidity;BME280_pressure;Samples;Min_cycle;Max_cycle;Signal;HPM_P1;HPM_P2
2021/11/21 00:01:00;;;;;;;4.55;0.73;;;;;;;7.27;74.44;100372.56;4970329;28;20051;-46
2021/11/21 00:03:27;;;;;;;7.10;1.00;;;;;;;7.22;74.76;100366.47;4975831;28;20663;-51
2021/11/21 00:05:54;;;;;;;7.70;1.02;;;;;;;7.19;74.93;100366.41;4969364;28;20052;-43
2021/11/21 00:08:21;;;;;;;5.60;0.80;;;;;;;7.13;74.47;100367.16;4972969;28;20474;-47
2021/11/21 00:10:48;;;;;;;3.97;1.02;;;;;;;7.10;74.75;100366.25;4971201;28;20101;-48
2021/11/21 00:13:15;;;;;;;8.45;1.35;;;;;;;7.06;74.17;100360.22;4972365;28;20050;-49
2021/11/21 00:15:42;;;;;;;4.82;0.98;;;;;;;7.02;73.96;100358.38;4972401;28;20050;-45
2021/11/21 00:18:10;;;;;;;6.72;1.10;;;;;;;6.94;75.40;100360.84;4973013;28;20059;-46
2021/11/21 00:20:38;;;;;;;4.35;0.77;;;;;;;6.90;74.10;100361.63;4974795;28;20046;-48
2021/11/21 00:23:05;;;;;;;6.85;0.70;;;;;;;6.85;73.63;100364.13;4978278;28;20058;-46
2021/11/21 00:25:33;;;;;;;7.25;1.08;;;;;;;6.77;74.76;100363.13;4973757;28;20053;-45
2021/11/21 00:28:00;;;;;;;8.35;1.10;;;;;;;6.73;74.22;100362.22;4973806;28;20101;-45
2021/11/21 00:30:27;;;;;;;4.25;1.02;;;;;;;6.70;73.96;100372.44;4977681;28;20451;-47
2021/11/21 00:32:54;;;;;;;5.78;0.70;;;;;;;6.64;73.57;100368.06;4971598;28;20105;-47
2021/11/21 00:35:21;;;;;;;5.80;1.52;;;;;;;6.60;73.83;100358.53;4972026;28;20410;-45
2021/11/21 00:37:49;;;;;;;5.25;1.25;;;;;;;6.56;74.67;100365.31;4971488;28;20404;-45
2021/11/21 00:40:15;;;;;;;4.10;0.52;;;;;;;6.52;74.80;100367.84;4982278;28;20064;-45
2021/11/21 00:42:42;;;;;;;7.40;1.33;;;;;;;6.49;74.19;100370.34;4978191;28;20098;-46
2021/11/21 00:45:10;;;;;;;10.23;0.98;;;;;;;6.47;74.98;100369.44;4975792;28;20105;-45
2021/11/21 00:47:40;;;;;;;7.63;1.30;;;;;;;6.43;74.80;100364.22;4971763;28;20076;-47
2021/11/21 00:50:08;;;;;;;6.43;1.38;;;;;;;6.41;74.70;100360.75;4974027;28;20046;-44
2021/11/21 00:52:36;;;;;;;6.30;0.95;;;;;;;6.38;75.07;100360.69;4972303;28;20587;-43
2021/11/21 00:55:12;;;;;;;6.38;1.30;;;;;;;6.31;74.09;100369.13;4973780;28;20718;-46
2021/11/21 00:57:40;;;;;;;5.22;1.00;;;;;;;6.29;74.79;100369.09;4970113;28;20068;-46
2021/11/21 01:00:11;;;;;;;3.97;0.88;;;;;;;6.26;73.97;100365.59;4969245;28;20066;-47
2021/11/21 01:02:39;;;;;;;4.30;0.90;;;;;;;6.20;73.95;100371.50;4979963;28;20096;-48
2021/11/21 01:05:08;;;;;;;8.90;1.05;;;;;;;6.19;75.03;100374.91;4976503;28;20427;-48
2021/11/21 01:07:37;;;;;;;4.80;0.90;;;;;;;6.13;74.40;100367.94;4977351;28;20047;-47
2021/11/21 01:10:11;;;;;;;7.97;0.80;;;;;;;6.10;74.89;100364.41;4973459;28;20050;-45
2021/11/21 01:12:40;;;;;;;9.38;1.15;;;;;;;6.07;74.09;100360.09;4974039;28;20102;-43
2021/11/21 01:15:10;;;;;;;8.35;1.10;;;;;;;6.02;74.55;100366.81;4974174;28;20042;-43
2021/11/21 01:17:37;;;;;;;7.68;1.20;;;;;;;5.98;74.93;100370.16;4978894;28;20573;-46
2021/11/21 01:20:06;;;;;;;5.47;0.90;;;;;;;5.91;74.12;100364.88;4973577;28;20105;-46
2021/11/21 01:22:32;;;;;;;5.13;0.95;;;;;;;5.82;75.29;100374.97;4974565;28;20105;-43
2021/11/21 01:24:59;;;;;;;6.13;1.52;;;;;;;5.80;75.55;100381.75;4977666;28;20049;-44
2021/11/21 01:27:26;;;;;;;6.20;0.85;;;;;;;5.79;75.27;100380.91;4976647;28;20137;-44
2021/11/21 01:29:53;;;;;;;10.80;1.00;;;;;;;5.76;75.14;100379.97;4977846;28;20053;-51
2021/11/21 01:32:20;;;;;;;7.45;1.38;;;;;;;5.73;74.48;100370.47;4979271;28;20221;-45
2021/11/21 01:34:46;;;;;;;8.60;1.40;;;;;;;5.68;75.48;100384.06;4980528;28;20050;-46
2021/11/21 01:37:13;;;;;;;4.82;1.02;;;;;;;5.65;74.86;100383.13;4980948;28;20050;-47
2021/11/21 01:39:39;;;;;;;5.25;1.17;;;;;;;5.64;74.84;100391.69;4978401;28;20051;-46
2021/11/21 01:42:06;;;;;;;7.20;1.00;;;;;;;5.62;74.54;100392.50;4976957;28;20050;-47
2021/11/21 01:44:33;;;;;;;5.45;0.73;;;;;;;5.58;74.78;100396.72;4978857;28;20057;-46
2021/11/21 01:46:59;;;;;;;5.05;1.15;;;;;;;5.58;74.81;100396.72;4979314;28;20467;-45
2021/11/21 01:49:26;;;;;;;7.70;0.70;;;;;;;5.56;75.78;100398.34;4983655;28;20077;-47
2021/11/21 01:51:53;;;;;;;11.70;1.05;;;;;;;5.52;75.35;100396.56;4980779;28;20058;-51
2021/11/21 01:54:20;;;;;;;7.72;1.10;;;;;;;5.55;75.38;100408.59;4974568;28;20110;-45
2021/11/21 01:56:47;;;;;;;9.15;1.20;;;;;;;5.53;75.31;100398.28;4976535;28;20109;-46
2021/11/21 01:59:13;;;;;;;2.50;0.65;;;;;;;5.51;75.54;100384.53;4972270;28;20055;-46
2021/11/21 02:01:40;;;;;;;3.58;1.02;;;;;;;5.48;74.79;100387.03;4977447;28;20050;-48
2021/11/21 02:04:07;;;;;;;3.00;0.60;;;;;;;5.45;75.74;100390.41;4979058;28;20050;-42
2021/11/21 02:06:33;;;;;;;3.80;0.75;;;;;;;5.40;75.66;100390.28;4983087;28;20046;-46
2021/11/21 02:09:00;;;;;;;8.75;1.00;;;;;;;5.39;75.97;100395.38;4981814;28;20053;-49
2021/11/21 02:11:27;;;;;;;5.13;0.82;;;;;;;5.37;75.30;100408.19;4976958;28;20051;-44
2021/11/21 02:13:54;;;;;;;5.70;0.85;;;;;;;5.39;75.91;100393.69;4980504;28;20124;-47
2021/11/21 02:16:24;;;;;;;3.40;0.68;;;;;;;5.36;75.18;100393.63;4976498;28;20406;-48
2021/11/21 02:18:51;;;;;;;3.60;1.38;;;;;;;5.30;75.12;100390.88;4972020;28;20510;-46
2021/11/21 02:21:19;;;;;;;2.83;0.60;;;;;;;5.33;75.84;100385.84;4975019;28;20054;-46
2021/11/21 02:23:47;;;;;;;4.78;1.05;;;;;;;5.33;74.83;100383.25;4975546;28;20070;-47
2021/11/21 02:26:17;;;;;;;9.63;0.70;;;;;;;5.30;74.86;100383.19;4972197;28;20117;-47
2021/11/21 02:28:46;;;;;;;4.00;0.55;;;;;;;5.26;74.91;100394.22;4981439;28;20569;-46
2021/11/21 02:31:14;;;;;;;2.47;0.73;;;;;;;5.23;76.26;100394.13;4974231;28;20054;-44
2021/11/21 02:33:49;;;;;;;5.97;0.68;;;;;;;5.19;75.92;100389.75;4974028;28;20043;-42
2021/11/21 02:36:16;;;;;;;3.17;0.75;;;;;;;5.14;75.81;100372.53;4977775;28;20039;-45
2021/11/21 02:38:42;;;;;;;5.65;0.75;;;;;;;5.08;75.24;100380.09;4972633;28;20054;-43
2021/11/21 02:41:11;;;;;;;3.55;0.75;;;;;;;5.04;75.92;100373.16;4976293;28;20062;-43
2021/11/21 02:43:41;;;;;;;3.83;0.82;;;;;;;5.01;75.59;100373.91;4977501;28;20050;-46
2021/11/21 02:46:08;;;;;;;7.47;0.93;;;;;;;4.94;75.22;100381.44;4981642;28;20054;-50
2021/11/21 02:48:36;;;;;;;8.15;1.05;;;;;;;4.93;75.71;100384.84;4974266;28;20047;-46
2021/11/21 02:51:05;;;;;;;4.68;0.68;;;;;;;4.89;74.93;100378.75;4976235;28;20450;-49
2021/11/21 02:53:34;;;;;;;6.57;1.42;;;;;;;4.85;75.58;100388.09;4971232;28;20053;-45
2021/11/21 02:56:05;;;;;;;5.65;0.77;;;;;;;4.83;75.59;100389.72;4980265;28;20050;-46
2021/11/21 02:58:33;;;;;;;5.15;1.10;;;;;;;4.80;75.42;100379.38;4974977;28;20055;-46
2021/11/21 03:01:04;;;;;;;8.75;0.80;;;;;;;4.80;75.60;100375.94;4975168;28;20058;-46
2021/11/21 03:03:34;;;;;;;6.30;0.65;;;;;;;4.75;76.14;100370.69;4982937;28;20046;-44
2021/11/21 03:06:03;;;;;;;5.50;0.60;;;;;;;4.77;75.48;100371.63;4973347;28;20054;-47
2021/11/21 03:08:29;;;;;;;7.53;0.85;;;;;;;4.75;75.50;100376.69;4978306;28;20133;-44
2021/11/21 03:10:56;;;;;;;6.43;0.57;;;;;;;4.72;75.97;100371.50;4977099;28;20055;-46
2021/11/21 03:13:24;;;;;;;5.28;0.82;;;;;;;4.68;76.19;100374.81;4980893;28;20051;-45
2021/11/21 03:15:51;;;;;;;3.88;0.60;;;;;;;4.65;76.15;100369.56;4971580;28;20047;-46
2021/11/21 03:18:17;;;;;;;11.13;0.80;;;;;;;4.62;75.67;100374.63;4971479;28;20125;-46
2021/11/21 03:20:44;;;;;;;1.60;0.77;;;;;;;4.60;76.07;100387.41;4978663;28;20078;-49
2021/11/21 03:23:11;;;;;;;8.55;0.68;;;;;;;4.60;75.44;100387.41;4976211;28;20062;-45
2021/11/21 03:25:37;;;;;;;6.03;0.73;;;;;;;4.57;76.15;100392.47;4971850;28;20047;-46
2021/11/21 03:28:05;;;;;;;4.70;0.80;;;;;;;4.56;75.61;100384.75;4973778;28;20105;-45
2021/11/21 03:30:32;;;;;;;11.43;1.38;;;;;;;4.50;76.09;100375.19;4976756;28;20104;-45
2021/11/21 03:32:59;;;;;;;6.18;0.68;;;;;;;4.46;76.46;100375.91;4972672;28;20054;-46
2021/11/21 03:35:25;;;;;;;7.25;0.70;;;;;;;4.45;76.26;100381.84;4974240;28;20051;-45
2021/11/21 03:37:52;;;;;;;1.60;0.65;;;;;;;4.43;76.09;100393.78;4975172;28;20058;-47
2021/11/21 03:40:19;;;;;;;3.67;0.70;;;;;;;4.39;76.80;100391.97;4981391;28;20050;-43
2021/11/21 03:42:47;;;;;;;4.38;0.93;;;;;;;4.37;76.32;100387.66;4982824;28;20069;-43
2021/11/21 03:45:15;;;;;;;4.85;0.75;;;;;;;4.35;76.43;100386.75;4979259;28;20054;-46
2021/11/21 03:47:42;;;;;;;4.03;0.73;;;;;;;4.31;76.75;100390.03;4963660;28;20133;-46
2021/11/21 03:50:12;;;;;;;6.35;1.13;;;;;;;4.33;77.00;100398.63;4976037;28;20054;-46
2021/11/21 03:52:41;;;;;;;9.23;1.05;;;;;;;4.33;76.71;100401.19;4979753;28;20046;-46
2021/11/21 03:55:08;;;;;;;6.70;0.93;;;;;;;4.30;76.57;100390.00;4980834;28;20363;-43
2021/11/21 03:57:35;;;;;;;4.35;0.73;;;;;;;4.28;76.54;100382.25;4980270;28;20410;-46
2021/11/21 04:00:05;;;;;;;6.43;0.57;;;;;;;4.24;76.35;100388.13;4975633;28;20418;-45
2021/11/21 04:02:32;;;;;;;5.60;0.82;;;;;;;4.23;75.80;100387.25;4979665;28;20078;-44
2021/11/21 04:04:59;;;;;;;7.72;0.95;;;;;;;4.21;75.98;100388.91;4980981;28;20754;-45
2021/11/21 04:07:25;;;;;;;2.95;0.73;;;;;;;4.17;76.46;100381.09;4982789;28;20054;-43
2021/11/21 04:09:52;;;;;;;5.32;0.63;;;;;;;4.15;76.24;100388.72;4980903;28;21019;-44
2021/11/21 04:12:19;;;;;;;3.88;0.70;;;;;;;4.12;76.14;100393.75;4977226;28;20098;-42
2021/11/21 04:14:45;;;;;;;5.15;0.82;;;;;;;4.09;76.75;100397.09;4979003;28;20050;-43
2021/11/21 04:17:12;;;;;;;4.68;0.77;;;;;;;4.09;76.25;100402.22;4976495;28;20047;-41
2021/11/21 04:19:38;;;;;;;5.18;0.80;;;;;;;4.04;76.28;100395.22;4977235;28;20051;-44
2021/11/21 04:22:05;;;;;;;8.35;0.70;;;;;;;4.01;75.99;100388.31;4975832;28;20108;-44
2021/11/21 04:24:32;;;;;;;3.78;0.45;;;;;;;3.98;75.90;100388.22;4980534;28;20046;-43
2021/11/21 04:26:59;;;;;;;3.38;0.98;;;;;;;3.96;76.34;100388.19;4978266;28;20046;-44
2021/11/21 04:29:27;;;;;;;4.15;0.73;;;;;;;3.93;76.10;100382.09;4978900;28;20050;-43
2021/11/21 04:31:54;;;;;;;3.38;0.95;;;;;;;3.93;75.94;100382.09;4977563;28;20050;-44
2021/11/21 04:34:21;;;;;;;3.15;0.60;;;;;;;3.92;76.45;100390.63;4982276;28;20050;-53
2021/11/21 04:36:49;;;;;;;6.70;1.30;;;;;;;3.90;75.89;100393.13;4978750;28;20050;-41
2021/11/21 04:39:15;;;;;;;4.13;0.98;;;;;;;3.86;75.85;100397.28;4978295;28;20051;-43
2021/11/21 04:41:42;;;;;;;8.10;1.58;;;;;;;3.84;76.42;100388.69;4974531;28;20049;-42
2021/11/21 04:44:09;;;;;;;3.30;0.77;;;;;;;3.81;76.08;100391.16;4977459;28;20059;-41
2021/11/21 04:46:35;;;;;;;6.25;0.77;;;;;;;3.79;76.25;100390.25;4981908;28;20046;-43
2021/11/21 04:49:04;;;;;;;4.30;0.70;;;;;;;3.78;76.05;100396.19;4979136;28;20050;-43
2021/11/21 04:51:30;;;;;;;5.13;0.80;;;;;;;3.76;76.46;100389.28;4978388;28;20419;-42
2021/11/21 04:53:58;;;;;;;6.65;2.45;;;;;;;3.73;75.71;100397.75;4979934;28;20469;-42
2021/11/21 04:56:25;;;;;;;1.98;0.90;;;;;;;3.74;75.82;100402.03;4981782;28;20076;-43
2021/11/21 04:58:51;;;;;;;7.95;0.93;;;;;;;3.73;75.60;100405.44;4981082;28;20050;-46
2021/11/21 05:01:19;;;;;;;6.35;0.70;;;;;;;3.70;76.32;100405.34;4977189;28;20089;-44
2021/11/21 05:03:46;;;;;;;3.00;1.00;;;;;;;3.67;75.94;100402.66;4981571;28;20050;-46
2021/11/21 05:06:13;;;;;;;2.90;0.85;;;;;;;3.64;75.55;100405.16;4980900;28;20053;-45
2021/11/21 05:08:39;;;;;;;4.80;0.80;;;;;;;3.60;76.08;100404.19;4981553;28;20588;-41
2021/11/21 05:11:06;;;;;;;2.47;0.50;;;;;;;3.58;75.67;100404.13;4980040;28;20046;-42
2021/11/21 05:13:32;;;;;;;2.60;0.68;;;;;;;3.56;75.63;100408.34;4978531;28;20105;-43
2021/11/21 05:15:59;;;;;;;3.40;0.70;;;;;;;3.53;76.26;100403.13;4976820;28;20113;-48
2021/11/21 05:18:26;;;;;;;11.02;1.17;;;;;;;3.51;76.08;100399.63;4981341;28;20049;-43
2021/11/21 05:20:52;;;;;;;4.05;1.25;;;;;;;3.46;76.11;100398.63;4977642;28;20121;-45
2021/11/21 05:23:19;;;;;;;4.50;1.30;;;;;;;3.44;75.63;100407.94;4979797;28;20054;-45
2021/11/21 05:25:46;;;;;;;4.82;0.75;;;;;;;3.41;75.83;100407.84;4980363;28;20046;-47
2021/11/21 05:28:13;;;;;;;6.28;0.70;;;;;;;3.38;75.33;100412.88;4976714;28;20050;-45
2021/11/21 05:30:40;;;;;;;5.00;0.75;;;;;;;3.34;76.05;100407.63;4977026;28;20526;-44
2021/11/21 05:33:07;;;;;;;5.95;0.70;;;;;;;3.32;76.14;100413.53;4974993;28;20050;-49
2021/11/21 05:35:34;;;;;;;5.50;0.70;;;;;;;3.29;76.21;100406.63;4979172;28;20125;-40
2021/11/21 05:38:00;;;;;;;4.13;0.60;;;;;;;3.27;76.24;100410.81;4980981;28;20569;-42
2021/11/21 05:40:27;;;;;;;2.80;0.60;;;;;;;3.26;75.38;100403.97;4980219;28;20360;-44
2021/11/21 05:42:53;;;;;;;2.22;0.70;;;;;;;3.22;76.24;100408.09;4977874;28;20046;-47
2021/11/21 05:45:20;;;;;;;3.38;0.50;;;;;;;3.21;76.08;100400.41;4974709;28;20181;-42
2021/11/21 05:47:47;;;;;;;5.18;0.95;;;;;;;3.18;75.36;100401.13;4975983;28;20054;-40
2021/11/21 05:50:14;;;;;;;4.47;0.68;;;;;;;3.15;75.71;100395.06;4977618;28;20663;-45
2021/11/21 05:52:44;;;;;;;3.55;0.90;;;;;;;3.14;76.25;100404.41;4975444;28;20482;-49
2021/11/21 05:55:11;;;;;;;7.75;1.10;;;;;;;3.11;75.39;100409.47;4976328;28;20105;-45
2021/11/21 05:57:38;;;;;;;2.55;0.98;;;;;;;3.10;76.37;100419.63;4976902;28;20540;-45
2021/11/21 06:00:08;;;;;;;7.95;0.90;;;;;;;3.07;75.33;100413.59;4979351;28;20061;-41
2021/11/21 06:02:35;;;;;;;;;;;;;;;2.99;75.24;100414.13;4978213;28;20046;-43
2021/11/21 06:05:02;;;;;;;4.82;0.77;;;;;;;3.01;76.23;100413.38;4979856;28;19976;-42
2021/11/21 06:07:29;;;;;;;8.25;0.90;;;;;;;2.98;75.03;100418.41;4976503;28;20098;-44
2021/11/21 06:09:55;;;;;;;2.50;0.85;;;;;;;2.96;74.89;100414.91;4976060;28;20117;-46
2021/11/21 06:12:22;;;;;;;3.25;0.68;;;;;;;2.94;75.72;100416.56;4977013;28;20043;-46
2021/11/21 06:14:49;;;;;;;1.70;0.75;;;;;;;2.90;75.60;100404.47;4980061;28;20097;-44
2021/11/21 06:17:15;;;;;;;4.03;0.63;;;;;;;2.88;75.01;100408.66;4975369;28;20097;-40
2021/11/21 06:19:44;;;;;;;4.50;0.50;;;;;;;2.85;74.98;100412.00;4979195;28;20117;-40
2021/11/21 06:22:10;;;;;;;4.80;0.52;;;;;;;2.83;75.08;100403.38;4973844;28;20046;-41
2021/11/21 06:24:37;;;;;;;0.70;0.50;;;;;;;2.83;75.96;100424.72;4977214;28;20050;-47
2021/11/21 06:27:04;;;;;;;0.52;0.38;;;;;;;2.79;75.45;100425.44;4971377;28;20117;-42
2021/11/21 06:29:30;;;;;;;1.60;0.40;;;;;;;2.78;75.73;100436.50;4978224;28;20096;-45
2021/11/21 06:31:58;;;;;;;2.53;0.38;;;;;;;2.75;74.74;100423.59;4977687;28;20463;-44
2021/11/21 06:34:25;;;;;;;2.08;0.60;;;;;;;2.76;75.51;100434.66;4980554;28;20046;-46
2021/11/21 06:36:52;;;;;;;10.27;0.85;;;;;;;2.74;74.55;100433.75;4982605;28;20050;-47
2021/11/21 06:39:18;;;;;;;1.17;0.38;;;;;;;2.73;75.55;100429.47;4975751;28;20051;-44
2021/11/21 06:41:45;;;;;;;6.47;0.50;;;;;;;2.71;75.47;100414.06;4982107;28;20046;-45
2021/11/21 06:44:12;;;;;;;1.73;0.32;;;;;;;2.69;75.01;100415.69;4972688;28;20050;-41
2021/11/21 06:46:39;;;;;;;1.90;0.50;;;;;;;2.68;74.78;100421.63;4975335;28;20058;-45
2021/11/21 06:49:06;;;;;;;2.38;0.30;;;;;;;2.67;75.14;100427.56;4976553;28;20418;-40
2021/11/21 06:51:34;;;;;;;0.32;0.20;;;;;;;2.65;74.77;100434.28;4976058;28;20051;-41
2021/11/21 06:54:01;;;;;;;2.88;0.50;;;;;;;2.64;74.72;100435.13;4980472;28;20101;-42
2021/11/21 06:56:29;;;;;;;1.48;0.20;;;;;;;2.62;74.42;100436.75;4978483;28;20430;-45
2021/11/21 06:58:57;;;;;;;0.85;0.57;;;;;;;2.60;75.24;100431.56;4977791;28;20105;-42
2021/11/21 07:01:23;;;;;;;1.23;0.38;;;;;;;2.61;75.38;100440.13;4975449;28;20058;-44
2021/11/21 07:03:50;;;;;;;2.25;0.50;;;;;;;2.62;75.75;100439.28;4981962;28;20060;-44
2021/11/21 07:06:36;;;;;;;2.53;0.30;;;;;;;2.61;74.93;100437.56;4974185;28;20055;-39
2021/11/21 07:09:05;;;;;;;4.15;0.50;;;;;;;2.61;74.75;100445.22;4981491;28;20050;-41
2021/11/21 07:11:32;;;;;;;5.55;0.95;;;;;;;2.62;74.68;100444.41;4978108;28;20424;-45
2021/11/21 07:13:59;;;;;;;2.78;0.60;;;;;;;2.61;74.30;100442.69;4976092;28;20113;-42
2021/11/21 07:16:26;;;;;;;2.28;0.20;;;;;;;2.60;75.24;100440.94;4979295;28;20054;-43
2021/11/21 07:18:53;;;;;;;1.20;0.52;;;;;;;2.60;74.36;100451.19;4982752;28;20137;-41
2021/11/21 07:21:19;;;;;;;5.10;0.68;;;;;;;2.57;75.22;100447.69;4977781;28;20050;-44
2021/11/21 07:23:46;;;;;;;3.25;0.38;;;;;;;2.56;74.90;100445.94;4979674;28;20109;-42
2021/11/21 07:26:13;;;;;;;1.13;0.47;;;;;;;2.55;75.56;100449.31;4983971;28;20454;-42
2021/11/21 07:28:40;;;;;;;0.73;0.40;;;;;;;2.60;75.20;100440.94;4975839;28;20047;-44
2021/11/21 07:31:07;;;;;;;3.92;0.57;;;;;;;2.64;74.29;100447.91;4986901;28;20140;-41
2021/11/21 07:33:34;;;;;;;2.28;0.20;;;;;;;2.66;75.09;100453.94;4975038;28;20050;-40
2021/11/21 07:36:01;;;;;;;0.52;0.32;;;;;;;2.72;75.61;100455.84;4982590;28;20093;-41
2021/11/21 07:38:27;;;;;;;1.33;0.40;;;;;;;2.73;74.22;100461.03;4980558;28;20495;-43
2021/11/21 07:40:54;;;;;;;1.58;0.28;;;;;;;2.81;74.08;100467.28;4981660;28;20046;-41
2021/11/21 07:43:21;;;;;;;2.45;0.32;;;;;;;2.85;73.89;100467.41;4978077;28;20054;-43
2021/11/21 07:45:49;;;;;;;1.52;0.65;;;;;;;2.89;74.17;100465.00;4982681;28;20109;-42
2021/11/21 07:48:16;;;;;;;1.73;0.40;;;;;;;2.90;74.56;100466.75;4978093;28;20046;-46
2021/11/21 07:50:42;;;;;;;1.45;0.30;;;;;;;2.95;74.64;100469.47;4978877;28;20486;-43
2021/11/21 07:53:09;;;;;;;0.55;0.45;;;;;;;3.04;74.26;100469.78;4982441;28;20046;-42
2021/11/21 07:55:36;;;;;;;2.45;0.22;;;;;;;3.14;73.62;100475.25;4981458;28;20050;-43
2021/11/21 07:58:03;;;;;;;1.80;0.68;;;;;;;3.25;73.40;100480.72;4977103;28;20046;-46
2021/11/21 08:00:30;;;;;;;0.73;0.10;;;;;;;3.45;73.01;100486.53;4980436;28;20094;-46
2021/11/21 08:02:57;;;;;;;1.98;0.45;;;;;;;3.63;72.80;100490.50;4978206;28;20049;-43
2021/11/21 08:05:25;;;;;;;2.30;1.23;;;;;;;3.81;72.21;100485.97;4977969;28;20529;-44
2021/11/21 08:07:51;;;;;;;0.98;0.57;;;;;;;4.04;71.95;100496.09;4980472;28;20055;-44
2021/11/21 08:10:18;;;;;;;1.95;0.30;;;;;;;4.30;71.43;100496.03;4979013;28;20097;-45
2021/11/21 08:12:46;;;;;;;1.00;0.43;;;;;;;4.48;70.73;100499.94;4973620;28;20855;-43
2021/11/21 08:15:13;;;;;;;1.45;0.40;;;;;;;4.66;70.64;100514.16;4972790;28;20078;-42
2021/11/21 08:17:40;;;;;;;0.60;0.40;;;;;;;4.85;69.23;100508.72;4976686;28;20058;-45
2021/11/21 08:20:07;;;;;;;1.75;0.65;;;;;;;4.87;69.01;100512.19;4974073;28;20061;-44
2021/11/21 08:22:34;;;;;;;0.45;0.32;;;;;;;4.85;69.44;100511.28;4972836;28;20046;-45
2021/11/21 08:25:00;;;;;;;2.05;0.60;;;;;;;4.74;68.84;100507.53;4973421;28;20050;-41
2021/11/21 08:27:27;;;;;;;2.58;0.35;;;;;;;4.92;69.82;100516.56;4974954;28;20047;-45
2021/11/21 08:29:54;;;;;;;1.67;0.65;;;;;;;5.38;69.40;100517.81;4980229;28;20057;-45
2021/11/21 08:32:20;;;;;;;3.95;0.60;;;;;;;5.95;69.19;100519.22;4984593;28;20078;-43
2021/11/21 08:34:47;;;;;;;1.38;0.45;;;;;;;6.56;67.03;100532.63;4980788;28;20606;-45
2021/11/21 08:37:14;;;;;;;0.57;0.35;;;;;;;7.15;66.10;100534.66;4978870;28;20710;-43
2021/11/21 08:39:40;;;;;;;0.70;0.20;;;;;;;7.72;64.01;100537.38;4978641;28;20112;-43
2021/11/21 08:42:07;;;;;;;2.15;0.43;;;;;;;8.25;62.56;100532.19;4982033;28;20050;-46
2021/11/21 08:44:35;;;;;;;2.80;0.40;;;;;;;8.38;62.08;100539.28;4982474;28;20046;-51
2021/11/21 08:47:02;;;;;;;2.45;0.70;;;;;;;8.62;61.84;100548.22;4986698;28;20049;-47
2021/11/21 08:49:28;;;;;;;2.92;0.55;;;;;;;8.95;59.66;100546.91;4979317;28;20101;-47
2021/11/21 08:51:55;;;;;;;3.13;0.80;;;;;;;9.12;58.54;100548.84;4973810;28;20062;-46
2021/11/21 08:54:22;;;;;;;1.08;0.40;;;;;;;8.80;58.82;100555.34;4982543;28;20050;-42
2021/11/21 08:56:49;;;;;;;3.05;0.68;;;;;;;8.44;60.30;100554.81;4978447;28;20062;-47
2021/11/21 08:59:16;;;;;;;2.80;0.50;;;;;;;8.08;60.47;100548.28;4980241;28;20073;-44
2021/11/21 09:01:43;;;;;;;2.38;0.90;;;;;;;7.79;60.46;100564.13;4974776;28;20058;-46
2021/11/21 09:04:11;;;;;;;3.13;0.40;;;;;;;7.49;61.45;100560.19;4974099;28;20069;-45
2021/11/21 09:06:38;;;;;;;6.15;0.63;;;;;;;7.18;62.00;100561.34;4974489;28;20054;-45
2021/11/21 09:09:04;;;;;;;0.35;0.35;;;;;;;6.91;63.28;100567.69;4979893;28;20054;-46
2021/11/21 09:11:31;;;;;;;2.28;0.43;;;;;;;6.71;63.26;100568.94;4976840;28;20435;-46
2021/11/21 09:14:02;;;;;;;;;;;;;;;6.30;63.56;100568.06;4982478;28;20047;-44
2021/11/21 09:16:28;;;;;;;4.47;0.65;;;;;;;6.22;65.53;100569.59;4983485;28;20433;-44
2021/11/21 09:18:56;;;;;;;0.30;0.30;;;;;;;6.05;66.10;100572.66;4979775;28;20082;-44
2021/11/21 09:21:23;;;;;;;1.25;0.55;;;;;;;5.96;66.77;100574.94;4982240;28;20049;-43
2021/11/21 09:23:50;;;;;;;2.15;0.82;;;;;;;6.06;66.55;100569.22;4978860;28;20046;-46
2021/11/21 09:26:17;;;;;;;1.30;0.60;;;;;;;6.66;66.44;100567.16;4979040;28;20120;-44
2021/11/21 09:28:43;;;;;;;1.70;1.02;;;;;;;7.44;64.71;100573.84;4982732;28;20046;-46
2021/11/21 09:31:10;;;;;;;1.88;0.65;;;;;;;8.30;63.24;100571.81;4985201;28;20053;-44
2021/11/21 09:33:37;;;;;;;1.80;0.38;;;;;;;8.94;61.89;100578.75;4977903;28;20051;-44
2021/11/21 09:36:05;;;;;;;3.55;0.40;;;;;;;9.50;60.02;100576.78;4984011;28;20048;-45
2021/11/21 09:38:32;;;;;;;2.95;0.50;;;;;;;9.92;58.10;100581.50;4978289;28;20097;-46
2021/11/21 09:40:59;;;;;;;2.50;0.50;;;;;;;10.01;57.47;100589.34;4983041;28;20061;-43
2021/11/21 09:43:25;;;;;;;1.88;0.43;;;;;;;10.35;56.99;100588.75;4981187;28;20085;-47
2021/11/21 09:45:52;;;;;;;1.10;1.00;;;;;;;10.95;56.75;100589.97;4980601;28;20051;-50
2021/11/21 09:48:19;;;;;;;2.25;0.63;;;;;;;11.43;55.45;100591.84;4981842;28;20053;-47
2021/11/21 09:50:46;;;;;;;2.90;1.60;;;;;;;11.79;54.66;100587.56;4978126;28;20388;-45
2021/11/21 09:53:14;;;;;;;2.53;0.50;;;;;;;12.23;53.36;100585.03;4983108;28;20112;-42
2021/11/21 09:55:41;;;;;;;0.60;0.60;;;;;;;12.68;53.29;100587.53;4982045;28;20050;-47
2021/11/21 09:58:08;;;;;;;0.63;0.50;;;;;;;12.84;50.66;100593.53;4986867;28;20054;-45
2021/11/21 10:00:35;;;;;;;1.48;0.40;;;;;;;13.18;51.96;100599.47;4978375;28;20045;-45
2021/11/21 10:03:06;;;;;;;4.65;1.13;;;;;;;13.54;50.15;100584.56;4981340;28;20083;-46
2021/11/21 10:05:38;;;;;;;1.35;0.65;;;;;;;13.71;47.61;100586.22;4977757;28;20141;-45
2021/11/21 10:08:12;;;;;;;2.08;0.82;;;;;;;13.78;47.81;100587.88;4977904;28;20140;-46
2021/11/21 10:10:43;;;;;;;2.47;0.50;;;;;;;13.47;46.22;100588.03;4980385;28;20053;-47
2021/11/21 10:13:40;;;;;;;2.38;0.50;;;;;;;13.47;45.71;100585.44;4979808;28;20105;-45
2021/11/21 10:16:35;;;;;;;2.33;0.57;;;;;;;13.49;46.51;100588.94;4984535;28;20042;-49
2021/11/21 10:19:06;;;;;;;3.20;0.50;;;;;;;13.58;47.61;100593.25;4981260;28;20439;-47
2021/11/21 10:21:35;;;;;;;1.38;0.77;;;;;;;13.61;47.05;100596.66;4981047;28;20120;-43
2021/11/21 10:24:24;;;;;;;1.65;0.50;;;;;;;13.15;45.39;100602.09;4980340;28;20042;-47
2021/11/21 10:27:16;;;;;;;2.55;0.70;;;;;;;12.52;47.21;100602.28;4975623;28;20050;-51
2021/11/21 10:29:48;;;;;;;4.47;0.60;;;;;;;11.85;48.74;100606.63;4982493;28;20113;-49
2021/11/21 10:32:18;;;;;;;4.22;0.60;;;;;;;11.37;49.54;100618.63;4978698;28;20471;-47
2021/11/21 10:35:05;;;;;;;0.60;0.38;;;;;;;10.72;50.27;100614.03;4975954;28;20120;-45
2021/11/21 10:37:36;;;;;;;3.35;0.80;;;;;;;10.46;52.50;100616.44;4976658;28;20050;-47
2021/11/21 10:40:07;;;;;;;2.40;0.30;;;;;;;10.20;52.38;100614.50;4978381;28;20125;-49
2021/11/21 10:42:36;;;;;;;1.52;0.32;;;;;;;10.05;53.51;100616.13;4983870;28;20648;-46
2021/11/21 10:45:04;;;;;;;2.42;0.30;;;;;;;9.87;53.13;100633.19;4978383;28;20105;-45
2021/11/21 10:47:49;;;;;;;0.73;0.40;;;;;;;9.64;53.68;100625.22;4979280;28;20054;-50
2021/11/21 10:50:35;;;;;;;2.28;0.68;;;;;;;9.36;54.37;100624.94;4980540;28;20082;-52
2021/11/21 10:53:07;;;;;;;5.03;1.40;;;;;;;9.13;54.74;100622.94;4977339;28;20057;-43
2021/11/21 10:55:35;;;;;;;0.73;0.30;;;;;;;9.02;55.43;100624.50;4983438;28;20046;-44
2021/11/21 10:58:21;;;;;;;2.53;0.68;;;;;;;8.87;56.16;100626.91;4984828;28;20042;-45
2021/11/21 11:00:57;;;;;;;2.33;0.63;;;;;;;8.69;56.78;100627.53;4979444;28;20089;-47
2021/11/21 11:03:25;;;;;;;2.63;0.60;;;;;;;8.49;56.37;100619.44;4983754;28;20042;-45
2021/11/21 11:05:52;;;;;;;2.28;0.38;;;;;;;8.31;56.63;100630.34;4973792;28;20610;-46
2021/11/21 11:08:28;;;;;;;3.70;0.85;;;;;;;8.27;57.13;100641.47;4981565;28;20042;-48
2021/11/21 11:10:55;;;;;;;3.25;0.40;;;;;;;8.37;57.09;100640.75;4979098;28;20046;-46
2021/11/21 11:13:24;;;;;;;1.80;0.63;;;;;;;8.32;57.79;100637.25;4981984;28;20102;-45
2021/11/21 11:15:55;;;;;;;1.92;0.45;;;;;;;8.09;57.59;100635.16;4976832;28;20088;-46
2021/11/21 11:18:23;;;;;;;1.90;0.20;;;;;;;7.96;57.55;100647.84;4975850;28;20135;-46
2021/11/21 11:20:54;;;;;;;4.35;0.38;;;;;;;7.86;58.20;100643.34;4984223;28;20101;-45
2021/11/21 11:23:20;;;;;;;1.15;0.57;;;;;;;7.79;57.86;100637.22;4979003;28;20046;-44
2021/11/21 11:25:49;;;;;;;1.10;0.43;;;;;;;7.79;57.76;100637.22;4983633;28;20058;-45
2021/11/21 11:28:24;;;;;;;1.35;0.40;;;;;;;7.82;58.44;100637.28;4974734;28;20073;-43
2021/11/21 11:30:55;;;;;;;0.98;0.57;;;;;;;8.01;58.62;100636.75;4977719;28;20046;-44
2021/11/21 11:33:33;;;;;;;3.53;0.80;;;;;;;8.18;58.02;100635.28;4976653;28;20050;-42
2021/11/21 11:36:00;;;;;;;2.92;0.60;;;;;;;8.25;57.78;100635.41;4974895;28;20074;-44
2021/11/21 11:38:29;;;;;;;7.85;0.60;;;;;;;8.05;58.39;100633.38;4979093;28;20085;-42